sensor_id;sensor_type;location;lat;lon;timestamp;temperature;humidity
3998;DHT22;61314;53.444;9.902;2022-08-01T00:00:07;18.10;99.90
3998;DHT22;61314;53.444;9.902;2022-08-01T00:02:39;18.10;99.90
3998;DHT22;61314;53.444;9.902;2022-08-01T00:05:07;18.10;99.90
3998;DHT22;61314;53.444;9.902;2022-08-01T00:07:35;18.10;99.90
3998;DHT22;61314;53.444;9.902;2022-08-01T00:10:11;18.10;99.90
3998;DHT22;61314;53.444;9.902;2022-08-01T00:12:38;18.10;99.90
3998;DHT22;61314;53.444;9.902;2022-08-01T00:15:07;18.10;99.90
3998;DHT22;61314;53.444;9.902;2022-08-01T00:17:35;18.10;99.90
3998;DHT22;61314;53.444;9.902;2022-08-01T00:20:04;18.10;99.90
3998;DHT22;61314;53.444;9.902;2022-08-01T00:22:32;18.10;99.90
3998;DHT22;61314;53.444;9.902;2022-08-01T00:24:59;18.10;99.90
3998;DHT22;61314;53.444;9.902;2022-08-01T00:27:27;18.10;99.90
3998;DHT22;61314;53.444;9.902;2022-08-01T00:29:53;18.10;99.90
3998;DHT22;61314;53.444;9.902;2022-08-01T00:32:40;18.10;99.90
3998;DHT22;61314;53.444;9.902;2022-08-01T00:35:07;18.10;99.90
3998;DHT22;61314;53.444;9.902;2022-08-01T00:37:34;18.10;99.90
3998;DHT22;61314;53.444;9.902;2022-08-01T00:40:01;18.10;99.90
3998;DHT22;61314;53.444;9.902;2022-08-01T00:42:29;18.10;99.90
3998;DHT22;61314;53.444;9.902;2022-08-01T00:44:57;18.10;99.90
3998;DHT22;61314;53.444;9.902;2022-08-01T00:47:23;18.10;99.90
3998;DHT22;61314;53.444;9.902;2022-08-01T00:49:50;18.10;99.90
3998;DHT22;61314;53.444;9.902;2022-08-01T00:52:17;18.10;99.90
3998;DHT22;61314;53.444;9.902;2022-08-01T00:54:46;18.10;99.90
3998;DHT22;61314;53.444;9.902;2022-08-01T00:57:13;18.10;99.90
3998;DHT22;61314;53.444;9.902;2022-08-01T00:59:41;18.10;99.90
3998;DHT22;61314;53.444;9.902;2022-08-01T01:02:09;18.10;99.90
3998;DHT22;61314;53.444;9.902;2022-08-01T01:04:41;18.10;99.90
3998;DHT22;61314;53.444;9.902;2022-08-01T01:12:55;18.10;99.90
3998;DHT22;61314;53.444;9.902;2022-08-01T01:18:11;18.10;99.90
3998;DHT22;61314;53.444;9.902;2022-08-01T01:20:42;18.10;99.90
3998;DHT22;61314;53.444;9.902;2022-08-01T01:23:12;18.10;99.90
3998;DHT22;61314;53.444;9.902;2022-08-01T01:26:04;18.10;99.90
3998;DHT22;61314;53.444;9.902;2022-08-01T01:31:33;18.00;99.90
3998;DHT22;61314;53.444;9.902;2022-08-01T01:34:03;18.00;99.90
3998;DHT22;61314;53.444;9.902;2022-08-01T01:36:31;18.00;99.90
3998;DHT22;61314;53.444;9.902;2022-08-01T01:39:00;18.00;99.90
3998;DHT22;61314;53.444;9.902;2022-08-01T01:41:28;17.90;99.90
3998;DHT22;61314;53.444;9.902;2022-08-01T01:43:55;17.90;99.90
3998;DHT22;61314;53.444;9.902;2022-08-01T01:46:24;17.90;99.90
3998;DHT22;61314;53.444;9.902;2022-08-01T01:48:55;17.90;99.90
3998;DHT22;61314;53.444;9.902;2022-08-01T01:51:24;17.90;99.90
3998;DHT22;61314;53.444;9.902;2022-08-01T01:53:53;17.90;99.90
3998;DHT22;61314;53.444;9.902;2022-08-01T01:56:21;17.90;99.90
3998;DHT22;61314;53.444;9.902;2022-08-01T01:58:54;17.90;99.90
3998;DHT22;61314;53.444;9.902;2022-08-01T02:01:23;17.80;99.90
3998;DHT22;61314;53.444;9.902;2022-08-01T02:04:12;17.80;99.90
3998;DHT22;61314;53.444;9.902;2022-08-01T02:06:40;17.80;99.90
3998;DHT22;61314;53.444;9.902;2022-08-01T02:09:09;17.80;99.90
3998;DHT22;61314;53.444;9.902;2022-08-01T02:11:38;17.80;99.90
3998;DHT22;61314;53.444;9.902;2022-08-01T02:14:26;17.80;99.90
3998;DHT22;61314;53.444;9.902;2022-08-01T02:16:57;17.80;99.90
3998;DHT22;61314;53.444;9.902;2022-08-01T02:19:25;17.80;99.90
3998;DHT22;61314;53.444;9.902;2022-08-01T02:21:56;17.80;99.90
3998;DHT22;61314;53.444;9.902;2022-08-01T02:24:39;17.80;99.90
3998;DHT22;61314;53.444;9.902;2022-08-01T02:27:12;17.70;99.90
3998;DHT22;61314;53.444;9.902;2022-08-01T02:29:43;17.70;99.90
3998;DHT22;61314;53.444;9.902;2022-08-01T02:32:16;17.70;99.90
3998;DHT22;61314;53.444;9.902;2022-08-01T02:34:49;17.70;99.90
3998;DHT22;61314;53.444;9.902;2022-08-01T02:37:19;17.70;99.90
3998;DHT22;61314;53.444;9.902;2022-08-01T02:39:50;17.70;99.90
3998;DHT22;61314;53.444;9.902;2022-08-01T02:42:19;17.70;99.90
3998;DHT22;61314;53.444;9.902;2022-08-01T02:44:48;17.70;99.90
3998;DHT22;61314;53.444;9.902;2022-08-01T02:47:17;17.70;99.90
3998;DHT22;61314;53.444;9.902;2022-08-01T02:49:48;17.70;99.90
3998;DHT22;61314;53.444;9.902;2022-08-01T02:52:20;17.60;99.90
3998;DHT22;61314;53.444;9.902;2022-08-01T02:54:49;17.60;99.90
3998;DHT22;61314;53.444;9.902;2022-08-01T02:57:18;17.60;99.90
3998;DHT22;61314;53.444;9.902;2022-08-01T02:59:47;17.60;99.90
3998;DHT22;61314;53.444;9.902;2022-08-01T03:02:16;17.60;99.90
3998;DHT22;61314;53.444;9.902;2022-08-01T03:04:44;17.60;99.90
3998;DHT22;61314;53.444;9.902;2022-08-01T03:07:12;17.60;99.90
3998;DHT22;61314;53.444;9.902;2022-08-01T03:09:43;17.60;99.90
3998;DHT22;61314;53.444;9.902;2022-08-01T03:12:16;17.60;99.90
3998;DHT22;61314;53.444;9.902;2022-08-01T03:14:44;17.60;99.90
3998;DHT22;61314;53.444;9.902;2022-08-01T03:17:17;17.60;99.90
3998;DHT22;61314;53.444;9.902;2022-08-01T03:19:45;17.60;99.90
3998;DHT22;61314;53.444;9.902;2022-08-01T03:22:14;17.60;99.90
3998;DHT22;61314;53.444;9.902;2022-08-01T03:24:44;17.60;99.90
3998;DHT22;61314;53.444;9.902;2022-08-01T03:27:17;17.60;99.90
3998;DHT22;61314;53.444;9.902;2022-08-01T03:29:47;17.60;99.90
3998;DHT22;61314;53.444;9.902;2022-08-01T03:32:15;17.60;99.90
3998;DHT22;61314;53.444;9.902;2022-08-01T03:34:43;17.60;99.90
3998;DHT22;61314;53.444;9.902;2022-08-01T03:39:47;17.60;99.90
3998;DHT22;61314;53.444;9.902;2022-08-01T03:42:20;17.60;99.90
3998;DHT22;61314;53.444;9.902;2022-08-01T03:44:54;17.50;99.90
3998;DHT22;61314;53.444;9.902;2022-08-01T03:47:28;17.50;99.90
3998;DHT22;61314;53.444;9.902;2022-08-01T03:49:57;17.50;99.90
3998;DHT22;61314;53.444;9.902;2022-08-01T03:52:25;17.50;99.90
3998;DHT22;61314;53.444;9.902;2022-08-01T03:54:55;17.50;99.90
3998;DHT22;61314;53.444;9.902;2022-08-01T03:57:23;17.50;99.90
3998;DHT22;61314;53.444;9.902;2022-08-01T04:00:04;17.50;99.90
3998;DHT22;61314;53.444;9.902;2022-08-01T04:02:36;17.50;99.90
3998;DHT22;61314;53.444;9.902;2022-08-01T04:05:04;17.50;99.90
3998;DHT22;61314;53.444;9.902;2022-08-01T04:07:32;17.50;99.90
3998;DHT22;61314;53.444;9.902;2022-08-01T04:10:03;17.50;99.90
3998;DHT22;61314;53.444;9.902;2022-08-01T04:12:31;17.50;99.90
3998;DHT22;61314;53.444;9.902;2022-08-01T04:14:58;17.50;99.90
3998;DHT22;61314;53.444;9.902;2022-08-01T04:17:26;17.50;99.90
3998;DHT22;61314;53.444;9.902;2022-08-01T04:19:53;17.50;99.90
3998;DHT22;61314;53.444;9.902;2022-08-01T04:22:19;17.50;99.90
3998;DHT22;61314;53.444;9.902;2022-08-01T04:24:48;17.50;99.90
3998;DHT22;61314;53.444;9.902;2022-08-01T09:03:25;17.50;99.90
3998;DHT22;61314;53.444;9.902;2022-08-01T09:05:52;19.30;99.90
3998;DHT22;61314;53.444;9.902;2022-08-01T09:34:04;19.40;99.90
3998;DHT22;61314;53.444;9.902;2022-08-01T10:05:06;20.70;99.90
3998;DHT22;61314;53.444;9.902;2022-08-01T10:07:36;21.60;99.90
3998;DHT22;61314;53.444;9.902;2022-08-01T10:10:23;21.60;99.90
3998;DHT22;61314;53.444;9.902;2022-08-01T11:04:12;24.30;99.90
3998;DHT22;61314;53.444;9.902;2022-08-01T12:05:05;25.70;99.90
3998;DHT22;61314;53.444;9.902;2022-08-01T12:07:35;25.80;99.90
3998;DHT22;61314;53.444;9.902;2022-08-01T12:10:06;25.80;99.90
3998;DHT22;61314;53.444;9.902;2022-08-01T12:12:35;25.80;99.90
3998;DHT22;61314;53.444;9.902;2022-08-01T12:22:58;25.90;99.90
3998;DHT22;61314;53.444;9.902;2022-08-01T12:25:25;25.70;99.90
3998;DHT22;61314;53.444;9.902;2022-08-01T12:27:52;25.70;99.90
3998;DHT22;61314;53.444;9.902;2022-08-01T12:30:22;25.80;99.90
3998;DHT22;61314;53.444;9.902;2022-08-01T12:32:54;25.70;99.90
3998;DHT22;61314;53.444;9.902;2022-08-01T12:35:26;25.90;99.90
3998;DHT22;61314;53.444;9.902;2022-08-01T12:37:57;25.90;99.90
3998;DHT22;61314;53.444;9.902;2022-08-01T12:40:26;25.70;99.10
3998;DHT22;61314;53.444;9.902;2022-08-01T12:43:36;25.70;99.50
3998;DHT22;61314;53.444;9.902;2022-08-01T12:45:58;25.60;99.90
3998;DHT22;61314;53.444;9.902;2022-08-01T12:48:27;25.80;99.90
3998;DHT22;61314;53.444;9.902;2022-08-01T12:50:55;25.70;99.30
3998;DHT22;61314;53.444;9.902;2022-08-01T12:53:24;25.80;99.60
3998;DHT22;61314;53.444;9.902;2022-08-01T12:56:05;25.70;99.70
3998;DHT22;61314;53.444;9.902;2022-08-01T12:58:32;25.70;99.10
3998;DHT22;61314;53.444;9.902;2022-08-01T13:01:08;25.50;99.00
3998;DHT22;61314;53.444;9.902;2022-08-01T13:03:36;25.50;98.30
3998;DHT22;61314;53.444;9.902;2022-08-01T13:06:13;25.50;98.60
3998;DHT22;61314;53.444;9.902;2022-08-01T13:08:43;25.50;98.90
3998;DHT22;61314;53.444;9.902;2022-08-01T13:11:12;25.30;98.10
3998;DHT22;61314;53.444;9.902;2022-08-01T13:13:49;25.40;99.30
3998;DHT22;61314;53.444;9.902;2022-08-01T13:16:21;25.50;98.50
3998;DHT22;61314;53.444;9.902;2022-08-01T13:19:04;25.40;98.10
3998;DHT22;61314;53.444;9.902;2022-08-01T13:21:32;25.40;97.40
3998;DHT22;61314;53.444;9.902;2022-08-01T13:24:26;25.50;97.30
3998;DHT22;61314;53.444;9.902;2022-08-01T13:29:37;25.30;98.10
3998;DHT22;61314;53.444;9.902;2022-08-01T13:32:16;25.30;97.10
3998;DHT22;61314;53.444;9.902;2022-08-01T13:35:07;25.30;97.30
3998;DHT22;61314;53.444;9.902;2022-08-01T13:37:36;25.30;96.80
3998;DHT22;61314;53.444;9.902;2022-08-01T13:40:08;25.20;97.30
3998;DHT22;61314;53.444;9.902;2022-08-01T13:42:36;25.30;97.80
3998;DHT22;61314;53.444;9.902;2022-08-01T13:45:04;25.40;98.70
3998;DHT22;61314;53.444;9.902;2022-08-01T13:47:41;25.40;96.80
3998;DHT22;61314;53.444;9.902;2022-08-01T13:50:28;25.30;97.00
3998;DHT22;61314;53.444;9.902;2022-08-01T13:52:55;25.30;97.20
3998;DHT22;61314;53.444;9.902;2022-08-01T13:55:22;25.30;96.60
3998;DHT22;61314;53.444;9.902;2022-08-01T13:57:48;25.40;97.60
3998;DHT22;61314;53.444;9.902;2022-08-01T14:00:16;25.30;97.10
3998;DHT22;61314;53.444;9.902;2022-08-01T14:02:43;25.40;97.70
3998;DHT22;61314;53.444;9.902;2022-08-01T14:05:10;25.60;97.10
3998;DHT22;61314;53.444;9.902;2022-08-01T14:07:37;25.60;96.40
3998;DHT22;61314;53.444;9.902;2022-08-01T14:10:07;25.30;95.20
3998;DHT22;61314;53.444;9.902;2022-08-01T14:12:46;25.20;95.80
3998;DHT22;61314;53.444;9.902;2022-08-01T14:15:13;25.10;96.30
3998;DHT22;61314;53.444;9.902;2022-08-01T14:18:00;24.90;96.70
3998;DHT22;61314;53.444;9.902;2022-08-01T14:20:27;24.80;96.10
3998;DHT22;61314;53.444;9.902;2022-08-01T14:22:54;24.80;97.40
3998;DHT22;61314;53.444;9.902;2022-08-01T14:25:21;24.70;96.70
3998;DHT22;61314;53.444;9.902;2022-08-01T14:28:09;24.80;96.80
3998;DHT22;61314;53.444;9.902;2022-08-01T14:30:37;24.70;96.80
3998;DHT22;61314;53.444;9.902;2022-08-01T15:10:34;24.60;96.60
3998;DHT22;61314;53.444;9.902;2022-08-01T15:13:01;22.90;97.30
3998;DHT22;61314;53.444;9.902;2022-08-01T15:15:28;22.80;97.60
3998;DHT22;61314;53.444;9.902;2022-08-01T15:17:55;22.70;98.20
3998;DHT22;61314;53.444;9.902;2022-08-01T18:08:49;18.20;99.90
3998;DHT22;61314;53.444;9.902;2022-08-01T18:13:50;18.10;99.90
3998;DHT22;61314;53.444;9.902;2022-08-01T18:16:17;18.20;99.90
3998;DHT22;61314;53.444;9.902;2022-08-01T18:21:11;18.00;99.90
3998;DHT22;61314;53.444;9.902;2022-08-01T18:23:39;17.80;99.90
3998;DHT22;61314;53.444;9.902;2022-08-01T18:33:42;17.50;99.90
3998;DHT22;61314;53.444;9.902;2022-08-01T18:36:09;17.50;99.90
3998;DHT22;61314;53.444;9.902;2022-08-01T18:38:57;17.50;99.90
3998;DHT22;61314;53.444;9.902;2022-08-01T18:41:24;17.40;99.90
3998;DHT22;61314;53.444;9.902;2022-08-01T18:43:52;17.30;99.90
3998;DHT22;61314;53.444;9.902;2022-08-01T18:46:31;17.30;99.90
3998;DHT22;61314;53.444;9.902;2022-08-01T18:48:58;17.20;99.90
3998;DHT22;61314;53.444;9.902;2022-08-01T18:51:25;17.10;99.90
3998;DHT22;61314;53.444;9.902;2022-08-01T18:53:54;17.00;99.90
3998;DHT22;61314;53.444;9.902;2022-08-01T20:59:09;14.40;99.90
3998;DHT22;61314;53.444;9.902;2022-08-01T21:37:28;13.60;99.90
3998;DHT22;61314;53.444;9.902;2022-08-01T21:39:57;13.70;99.90
3998;DHT22;61314;53.444;9.902;2022-08-01T21:42:26;13.50;99.90
3998;DHT22;61314;53.444;9.902;2022-08-01T21:47:22;13.60;99.90
3998;DHT22;61314;53.444;9.902;2022-08-01T21:49:49;13.40;99.90
3998;DHT22;61314;53.444;9.902;2022-08-01T22:00:15;13.20;99.90
